Time;durP1;ratioP1;P1;durP2;ratioP2;P2;SDS_P1;SDS_P2;PMS_P1;PMS_P2;Temp;Humidity;BMP_temperature;BMP_pressure;BME280_temperature;BME280_humidity;BME280_pressure;Samples;Min_cycle;Max_cycle;Signal;HPM_P1;HPM_P2
2022/04/09 00:02:06;;;;;;;8.43;6.30;;;7.80;99.90;;;;;;4982679;28;20248;-51
2022/04/09 00:04:33;;;;;;;6.70;5.90;;;7.90;99.90;;;;;;4983921;28;20202;-52
2022/04/09 00:07:00;;;;;;;6.35;5.70;;;8.00;99.90;;;;;;4982866;28;20261;-49
2022/04/09 00:09:31;;;;;;;7.75;6.78;;;8.00;99.90;;;;;;4984294;28;20202;-51
2022/04/09 00:11:58;;;;;;;10.68;6.65;;;8.10;99.90;;;;;;4982311;28;20287;-54
2022/04/09 00:14:25;;;;;;;10.23;7.63;;;7.90;99.90;;;;;;4981905;28;20246;-48
2022/04/09 00:16:52;;;;;;;14.25;7.47;;;8.00;99.90;;;;;;4981834;28;20198;-48
2022/04/09 00:19:20;;;;;;;7.80;5.88;;;7.80;99.90;;;;;;4981780;28;20265;-53
2022/04/09 00:21:47;;;;;;;7.88;5.78;;;7.90;99.90;;;;;;4981641;28;20223;-52
2022/04/09 00:24:19;;;;;;;7.22;5.68;;;7.90;99.90;;;;;;4981423;28;20240;-50
2022/04/09 00:26:46;;;;;;;8.65;6.45;;;8.00;99.90;;;;;;4981631;28;20210;-51
2022/04/09 00:29:16;;;;;;;7.80;6.15;;;7.70;99.90;;;;;;4981372;28;20213;-51
2022/04/09 00:31:43;;;;;;;5.57;4.75;;;7.90;99.90;;;;;;4981428;28;20449;-51
2022/04/09 00:34:11;;;;;;;7.55;5.47;;;8.00;99.90;;;;;;4981507;28;20269;-53
2022/04/09 00:36:38;;;;;;;5.65;5.15;;;7.90;99.90;;;;;;4981065;28;20217;-51
2022/04/09 00:39:08;;;;;;;7.05;6.35;;;7.90;99.90;;;;;;4981418;28;20232;-53
2022/04/09 00:41:35;;;;;;;13.45;6.85;;;7.90;99.90;;;;;;4981522;28;20198;-51
2022/04/09 00:44:03;;;;;;;7.30;5.95;;;8.00;99.90;;;;;;4981273;28;20199;-49
2022/04/09 00:46:30;;;;;;;10.80;5.95;;;8.10;99.90;;;;;;4981931;28;20260;-49
2022/04/09 00:48:58;;;;;;;8.70;5.68;;;8.20;99.90;;;;;;4981323;28;20257;-50
2022/04/09 00:51:26;;;;;;;7.28;4.82;;;8.20;99.90;;;;;;4980977;28;20202;-53
2022/04/09 00:53:54;;;;;;;6.65;5.72;;;7.80;99.90;;;;;;4981270;28;20470;-54
2022/04/09 00:56:25;;;;;;;7.93;5.85;;;7.90;99.90;;;;;;4981153;28;20217;-55
2022/04/09 00:58:55;;;;;;;9.35;5.53;;;8.00;99.90;;;;;;4980633;28;20217;-52
2022/04/09 01:01:28;;;;;;;7.85;5.70;;;7.90;99.90;;;;;;4981197;28;20198;-55
2022/04/09 01:03:56;;;;;;;8.70;6.20;;;8.00;99.90;;;;;;4980798;28;20209;-53
2022/04/09 01:06:23;;;;;;;7.35;5.72;;;8.10;99.90;;;;;;4980968;28;20202;-53
2022/04/09 01:08:51;;;;;;;6.20;5.53;;;8.20;99.90;;;;;;4980700;28;20533;-50
2022/04/09 01:11:19;;;;;;;6.88;5.90;;;8.20;99.90;;;;;;4981037;28;20229;-50
2022/04/09 01:13:47;;;;;;;6.78;6.13;;;8.00;99.90;;;;;;4980603;28;20458;-51
2022/04/09 01:16:14;;;;;;;6.28;5.60;;;7.80;99.90;;;;;;4981364;28;20198;-51
2022/04/09 01:18:45;;;;;;;9.80;6.10;;;7.70;99.90;;;;;;4980882;28;20252;-53
2022/04/09 01:21:16;;;;;;;8.80;7.30;;;7.50;99.90;;;;;;4980816;28;20206;-52
2022/04/09 01:23:43;;;;;;;8.88;6.97;;;7.30;99.90;;;;;;4981159;28;20206;-52
2022/04/09 01:26:10;;;;;;;8.98;7.60;;;7.40;99.90;;;;;;4980894;28;20202;-55
2022/04/09 01:28:38;;;;;;;10.77;7.72;;;7.40;99.90;;;;;;4980890;28;20402;-50
2022/04/09 01:31:04;;;;;;;10.45;7.93;;;7.30;99.90;;;;;;4980454;28;20205;-54
2022/04/09 01:33:32;;;;;;;15.75;9.40;;;7.30;99.90;;;;;;4982904;28;20273;-56
2022/04/09 01:36:01;;;;;;;11.25;6.68;;;7.20;99.90;;;;;;4985401;28;20213;-54
2022/04/09 01:38:28;;;;;;;10.75;7.28;;;7.20;99.90;;;;;;4991042;28;20488;-56
2022/04/09 01:40:55;;;;;;;12.43;6.47;;;7.20;99.90;;;;;;4986806;28;20202;-54
2022/04/09 01:43:22;;;;;;;7.15;5.88;;;7.10;99.90;;;;;;4980878;28;20194;-50
2022/04/09 01:45:50;;;;;;;7.53;6.25;;;6.80;99.90;;;;;;4981827;28;20458;-53
2022/04/09 01:48:17;;;;;;;9.38;6.35;;;6.70;99.90;;;;;;4982411;28;20222;-52
2022/04/09 01:50:52;;;;;;;6.05;4.90;;;6.50;99.90;;;;;;4984612;28;20562;-51
2022/04/09 01:53:24;;;;;;;4.18;3.55;;;6.30;99.90;;;;;;4984086;28;20471;-48
2022/04/09 01:55:52;;;;;;;5.50;4.65;;;6.10;99.90;;;;;;4984449;28;20202;-49
2022/04/09 01:58:20;;;;;;;4.05;3.75;;;6.00;99.90;;;;;;4984451;28;20457;-48
2022/04/09 02:00:48;;;;;;;3.33;3.03;;;5.90;99.90;;;;;;4979192;28;20214;-48
2022/04/09 02:03:17;;;;;;;3.10;2.78;;;5.80;99.90;;;;;;4984491;28;20285;-47
2022/04/09 02:05:46;;;;;;;2.40;2.05;;;5.70;99.90;;;;;;4984253;28;20252;-49
2022/04/09 02:08:18;;;;;;;2.10;1.90;;;5.60;99.90;;;;;;4984303;28;20271;-48
2022/04/09 02:10:45;;;;;;;3.15;2.65;;;5.50;99.90;;;;;;4983966;28;20205;-50
2022/04/09 02:13:13;;;;;;;5.20;3.25;;;5.30;99.90;;;;;;4984460;28;20218;-50
2022/04/09 02:15:41;;;;;;;5.43;3.10;;;5.30;99.90;;;;;;4984077;28;20217;-53
2022/04/09 02:18:08;;;;;;;3.58;3.28;;;5.10;99.90;;;;;;4982959;28;20221;-49
2022/04/09 02:20:35;;;;;;;5.25;3.88;;;5.00;99.90;;;;;;4984070;28;20249;-48
2022/04/09 02:23:03;;;;;;;7.40;4.63;;;5.00;99.90;;;;;;4983654;28;20206;-50
2022/04/09 02:25:30;;;;;;;7.25;5.60;;;5.00;99.90;;;;;;4983971;28;20205;-48
2022/04/09 02:27:58;;;;;;;7.07;4.40;;;4.90;99.90;;;;;;4983887;28;20454;-51
2022/04/09 02:30:27;;;;;;;5.45;4.65;;;4.80;99.90;;;;;;4983882;28;20276;-49
2022/04/09 02:32:54;;;;;;;5.45;4.78;;;4.80;99.90;;;;;;4983083;28;20229;-52
2022/04/09 02:35:26;;;;;;;9.10;6.70;;;4.70;99.90;;;;;;4984072;28;20202;-52
2022/04/09 02:37:53;;;;;;;6.80;5.63;;;4.60;99.90;;;;;;4983314;28;20252;-50
2022/04/09 02:40:20;;;;;;;8.70;5.30;;;4.70;99.90;;;;;;4983876;28;20239;-48
2022/04/09 02:42:48;;;;;;;6.05;5.45;;;4.60;99.90;;;;;;4983466;28;20205;-54
2022/04/09 02:45:15;;;;;;;7.07;5.97;;;4.60;99.90;;;;;;4984014;28;20206;-47
2022/04/09 02:47:42;;;;;;;6.95;6.22;;;4.50;99.90;;;;;;4983184;28;20225;-51
2022/04/09 02:50:11;;;;;;;6.85;6.22;;;4.40;99.90;;;;;;4983108;28;20205;-50
2022/04/09 02:52:39;;;;;;;7.40;5.82;;;4.40;99.90;;;;;;4983787;28;20284;-46
2022/04/09 02:55:08;;;;;;;7.82;6.15;;;4.40;99.90;;;;;;4983442;28;20439;-49
2022/04/09 02:57:37;;;;;;;8.18;6.30;;;4.50;99.90;;;;;;4983347;28;20221;-49
2022/04/09 03:00:07;;;;;;;7.18;6.38;;;4.40;99.90;;;;;;4983067;28;20218;-50
2022/04/09 03:02:36;;;;;;;7.63;6.72;;;4.40;99.90;;;;;;4983392;28;20209;-54
2022/04/09 03:05:07;;;;;;;8.55;6.90;;;4.40;99.90;;;;;;4983152;28;20221;-47
2022/04/09 03:07:34;;;;;;;8.73;6.47;;;4.40;99.90;;;;;;4983003;28;20295;-46
2022/04/09 03:10:02;;;;;;;11.50;7.43;;;4.40;99.90;;;;;;4983016;28;20205;-51
2022/04/09 03:12:30;;;;;;;8.95;7.70;;;4.40;99.90;;;;;;4983155;28;20221;-52
2022/04/09 03:14:57;;;;;;;11.23;8.00;;;4.30;99.90;;;;;;4982938;28;20220;-49
2022/04/09 03:17:26;;;;;;;7.32;5.90;;;4.40;99.90;;;;;;4983426;28;20222;-49
2022/04/09 03:19:53;;;;;;;8.93;7.00;;;4.50;99.90;;;;;;4983198;28;20507;-47
2022/04/09 03:22:21;;;;;;;8.25;6.70;;;4.50;99.90;;;;;;4983164;28;20245;-51
2022/04/09 03:24:49;;;;;;;8.10;6.80;;;4.50;99.90;;;;;;4982691;28;20210;-49
2022/04/09 03:27:16;;;;;;;7.68;6.93;;;4.50;99.90;;;;;;4982991;28;20218;-48
2022/04/09 03:29:44;;;;;;;10.82;6.97;;;4.50;99.90;;;;;;4982305;28;20440;-47
2022/04/09 03:32:11;;;;;;;7.05;6.35;;;4.50;99.90;;;;;;4982677;28;20292;-49
2022/04/09 03:34:39;;;;;;;9.18;7.32;;;4.60;99.90;;;;;;4982381;28;20400;-48
2022/04/09 03:37:07;;;;;;;8.50;7.07;;;4.60;99.90;;;;;;4982472;28;20225;-48
2022/04/09 03:39:41;;;;;;;9.95;6.95;;;4.60;99.90;;;;;;4982531;28;20204;-53
2022/04/09 03:42:12;;;;;;;8.00;7.20;;;4.60;99.90;;;;;;4982673;28;20205;-50
2022/04/09 03:44:45;;;;;;;7.57;6.85;;;4.50;99.90;;;;;;4982721;28;20201;-49
2022/04/09 03:47:16;;;;;;;9.93;6.93;;;4.40;99.90;;;;;;4982917;28;20243;-49
2022/04/09 03:49:44;;;;;;;8.77;7.20;;;4.30;99.90;;;;;;4982299;28;20233;-49
2022/04/09 03:52:13;;;;;;;7.93;7.10;;;4.30;99.90;;;;;;4982792;28;20202;-47
2022/04/09 03:54:41;;;;;;;8.60;7.10;;;4.30;99.90;;;;;;4982212;28;20263;-49
2022/04/09 03:57:09;;;;;;;9.13;6.88;;;4.30;99.90;;;;;;4981876;28;20229;-50
2022/04/09 03:59:36;;;;;;;8.00;7.07;;;4.40;99.90;;;;;;4982390;28;20197;-49
2022/04/09 04:02:04;;;;;;;10.48;6.65;;;4.30;99.90;;;;;;4981880;28;20202;-48
2022/04/09 04:04:32;;;;;;;10.48;7.60;;;4.30;99.90;;;;;;4982469;28;20211;-49
2022/04/09 04:06:59;;;;;;;8.98;7.05;;;4.30;99.90;;;;;;4982562;28;20529;-47
2022/04/09 04:09:26;;;;;;;8.95;6.68;;;4.40;99.90;;;;;;4983403;28;20518;-48
2022/04/09 04:11:54;;;;;;;11.07;7.78;;;4.30;99.90;;;;;;4982143;28;20212;-53
2022/04/09 04:14:21;;;;;;;9.30;7.75;;;4.30;99.90;;;;;;4982841;28;20291;-47
2022/04/09 04:16:51;;;;;;;8.63;7.25;;;4.30;99.90;;;;;;4982514;28;20561;-49
2022/04/09 04:19:21;;;;;;;7.57;6.82;;;4.30;99.90;;;;;;4982850;28;20209;-48
2022/04/09 04:21:48;;;;;;;10.77;9.68;;;4.30;99.90;;;;;;4982299;28;20209;-49
2022/04/09 04:24:19;;;;;;;10.35;8.27;;;4.40;99.90;;;;;;4982716;28;20212;-52
2022/04/09 04:26:46;;;;;;;9.90;7.53;;;4.40;99.90;;;;;;4983079;28;20216;-51
2022/04/09 04:29:13;;;;;;;7.72;7.03;;;4.50;99.90;;;;;;4983182;28;20523;-47
2022/04/09 04:31:42;;;;;;;11.38;8.43;;;4.50;99.90;;;;;;4982877;28;20202;-49
2022/04/09 04:34:10;;;;;;;7.95;6.85;;;4.40;99.90;;;;;;4982226;28;20224;-50
2022/04/09 04:36:39;;;;;;;10.45;8.07;;;4.50;99.90;;;;;;4982417;28;20197;-52
2022/04/09 04:39:06;;;;;;;9.52;8.27;;;4.50;99.90;;;;;;4981473;28;20225;-51
2022/04/09 04:41:33;;;;;;;12.38;8.55;;;4.50;99.90;;;;;;4981376;28;20205;-50
2022/04/09 04:44:01;;;;;;;10.73;8.18;;;4.50;99.90;;;;;;4981238;28;20230;-51
2022/04/09 04:46:40;;;;;;;9.43;7.53;;;4.50;99.90;;;;;;4981930;28;20221;-49
2022/04/09 04:49:12;;;;;;;10.68;7.57;;;4.60;99.90;;;;;;4981635;28;20275;-51
2022/04/09 04:51:40;;;;;;;10.15;8.85;;;4.70;99.90;;;;;;4981511;28;20206;-51
2022/04/09 04:54:07;;;;;;;9.40;8.38;;;4.70;99.90;;;;;;4981190;28;20230;-50
2022/04/09 04:56:34;;;;;;;8.82;7.75;;;4.70;99.90;;;;;;4981562;28;20213;-48
2022/04/09 04:59:01;;;;;;;9.10;7.32;;;4.70;99.90;;;;;;4981339;28;20217;-48
2022/04/09 05:01:28;;;;;;;20.05;10.10;;;4.70;99.90;;;;;;4981506;28;20201;-51
2022/04/09 05:03:56;;;;;;;12.98;8.52;;;4.70;99.90;;;;;;4980951;28;20197;-53
2022/04/09 05:06:23;;;;;;;14.85;9.00;;;4.70;99.90;;;;;;4981340;28;20517;-47
2022/04/09 05:08:51;;;;;;;12.43;8.77;;;4.80;99.90;;;;;;4980986;28;20263;-51
2022/04/09 05:11:20;;;;;;;12.20;9.30;;;4.80;99.90;;;;;;4981433;28;20244;-49
2022/04/09 05:13:48;;;;;;;9.52;8.52;;;4.70;99.90;;;;;;4980857;28;20225;-50
2022/04/09 05:16:15;;;;;;;11.63;9.27;;;4.80;99.90;;;;;;4981583;28;20204;-53
2022/04/09 05:18:43;;;;;;;8.23;7.43;;;4.80;99.90;;;;;;4981244;28;20229;-49
2022/04/09 05:21:10;;;;;;;10.88;7.63;;;4.70;99.90;;;;;;4980482;28;20223;-50
2022/04/09 05:23:38;;;;;;;8.82;6.72;;;4.80;99.90;;;;;;4985399;28;20205;-49
2022/04/09 05:26:05;;;;;;;9.25;8.18;;;4.80;99.90;;;;;;4984780;28;20209;-50
2022/04/09 05:28:32;;;;;;;9.60;7.07;;;4.80;99.90;;;;;;4985265;28;20531;-50
2022/04/09 05:31:03;;;;;;;10.90;7.88;;;4.70;99.90;;;;;;4984377;28;20209;-51
2022/04/09 05:33:31;;;;;;;9.70;7.60;;;4.70;99.90;;;;;;4985070;28;20287;-50
2022/04/09 05:36:02;;;;;;;12.52;9.98;;;4.80;99.90;;;;;;4984782;28;20211;-49
2022/04/09 05:38:31;;;;;;;7.32;6.60;;;4.90;99.90;;;;;;4984798;28;20218;-51
2022/04/09 05:41:00;;;;;;;12.05;7.38;;;5.00;99.90;;;;;;4984183;28;20213;-49
2022/04/09 05:43:29;;;;;;;11.27;8.90;;;5.00;99.90;;;;;;4984956;28;20206;-49
2022/04/09 05:45:57;;;;;;;7.45;6.22;;;5.00;99.90;;;;;;4984891;28;20251;-52
2022/04/09 05:48:25;;;;;;;8.50;7.75;;;5.10;99.90;;;;;;4984487;28;20231;-50
2022/04/09 05:50:53;;;;;;;11.45;7.80;;;5.20;99.90;;;;;;4984520;28;20202;-51
2022/04/09 05:53:20;;;;;;;11.52;7.95;;;5.30;99.90;;;;;;4984591;28;20272;-50
2022/04/09 05:55:47;;;;;;;11.57;9.13;;;5.40;99.90;;;;;;4984643;28;20246;-52
2022/04/09 05:58:15;;;;;;;9.93;7.45;;;5.50;99.90;;;;;;4984444;28;20792;-49
2022/04/09 06:00:42;;;;;;;9.43;8.48;;;5.60;99.90;;;;;;4984937;28;20248;-49
2022/04/09 06:03:10;;;;;;;9.48;7.57;;;5.70;99.90;;;;;;4984552;28;20557;-51
2022/04/09 06:05:38;;;;;;;8.02;6.82;;;5.80;99.90;;;;;;4988128;28;20198;-57
2022/04/09 06:08:05;;;;;;;8.35;6.75;;;5.80;99.90;;;;;;4991404;28;20226;-50
2022/04/09 06:10:34;;;;;;;11.60;9.02;;;5.90;99.90;;;;;;4990680;28;20220;-52
2022/04/09 06:13:01;;;;;;;8.55;7.45;;;5.90;99.90;;;;;;4989828;28;20208;-52
2022/04/09 06:15:30;;;;;;;9.73;7.82;;;5.90;99.90;;;;;;4987894;28;20202;-49
2022/04/09 06:18:04;;;;;;;7.30;6.55;;;5.90;99.90;;;;;;4991852;28;20221;-53
2022/04/09 06:20:31;;;;;;;13.00;8.02;;;6.00;99.90;;;;;;4993206;28;20213;-56
2022/04/09 06:22:59;;;;;;;9.25;7.07;;;6.00;99.90;;;;;;4991255;28;20198;-52
2022/04/09 06:25:28;;;;;;;8.18;7.35;;;6.10;99.90;;;;;;4984410;28;20361;-49
2022/04/09 06:27:55;;;;;;;11.45;7.35;;;6.10;99.90;;;;;;4984050;28;20300;-48
2022/04/09 06:30:22;;;;;;;8.00;7.20;;;6.10;99.90;;;;;;4984515;28;20464;-51
2022/04/09 06:32:49;;;;;;;9.85;7.47;;;6.30;99.90;;;;;;4983892;28;20198;-55
2022/04/09 06:35:17;;;;;;;6.90;6.20;;;6.50;99.90;;;;;;4983501;28;20264;-53
2022/04/09 06:37:45;;;;;;;8.18;7.35;;;6.60;99.90;;;;;;4983382;28;20221;-48
2022/04/09 06:40:13;;;;;;;8.48;6.35;;;6.80;99.90;;;;;;4984184;28;20209;-48
2022/04/09 06:42:40;;;;;;;8.90;6.97;;;6.90;99.90;;;;;;4984330;28;20417;-52
2022/04/09 06:45:09;;;;;;;7.30;5.35;;;7.00;99.90;;;;;;4984301;28;20202;-49
2022/04/09 06:47:38;;;;;;;7.15;5.85;;;6.90;99.90;;;;;;4984303;28;20449;-49
2022/04/09 06:50:11;;;;;;;6.55;5.82;;;7.00;99.90;;;;;;4983789;28;20537;-49
2022/04/09 06:52:39;;;;;;;6.47;5.60;;;6.90;99.90;;;;;;4984874;28;20505;-49
2022/04/09 06:55:10;;;;;;;6.70;5.68;;;7.10;99.90;;;;;;4983373;28;20233;-54
2022/04/09 06:57:41;;;;;;;6.38;4.93;;;7.20;99.90;;;;;;4976962;28;20463;-50
2022/04/09 07:00:12;;;;;;;10.18;4.95;;;7.30;99.90;;;;;;4976468;28;20206;-50
2022/04/09 07:02:40;;;;;;;5.38;4.63;;;7.40;99.90;;;;;;4977204;28;20203;-53
2022/04/09 07:05:08;;;;;;;7.57;5.45;;;7.40;99.90;;;;;;4977500;28;20481;-53
2022/04/09 07:07:35;;;;;;;8.52;5.50;;;7.50;99.90;;;;;;4977910;28;20479;-51
2022/04/09 07:10:09;;;;;;;4.90;4.50;;;7.80;99.90;;;;;;4977372;28;20258;-49
2022/04/09 07:12:39;;;;;;;7.68;4.78;;;7.90;99.90;;;;;;4978410;28;20205;-48
2022/04/09 07:15:06;;;;;;;6.63;3.95;;;8.00;99.90;;;;;;4976177;28;20282;-53
2022/04/09 07:17:34;;;;;;;4.72;4.18;;;8.40;99.90;;;;;;4982950;28;20222;-52
2022/04/09 07:20:07;;;;;;;8.38;4.57;;;8.80;99.90;;;;;;4982764;28;20198;-51
2022/04/09 07:22:37;;;;;;;9.52;6.13;;;9.00;99.90;;;;;;4981593;28;20202;-51
2022/04/09 07:25:09;;;;;;;3.90;3.60;;;9.40;99.90;;;;;;4980111;28;20258;-52
2022/04/09 07:27:48;;;;;;;3.47;3.15;;;9.20;99.90;;;;;;4967909;28;20219;-53
2022/04/09 07:30:24;;;;;;;5.57;4.85;;;9.30;99.90;;;;;;4982454;28;20203;-52
2022/04/09 07:32:56;;;;;;;4.90;3.97;;;9.50;99.90;;;;;;4982336;28;20202;-51
2022/04/09 07:35:24;;;;;;;6.78;3.67;;;9.50;99.90;;;;;;4982651;28;20306;-52
2022/04/09 07:37:54;;;;;;;5.43;3.67;;;9.10;99.90;;;;;;4982514;28;20289;-51
2022/04/09 07:40:24;;;;;;;3.65;3.35;;;8.70;99.90;;;;;;4981982;28;20199;-53
2022/04/09 07:42:52;;;;;;;4.50;3.65;;;8.40;99.90;;;;;;4982455;28;20205;-49
2022/04/09 07:45:21;;;;;;;7.70;4.50;;;8.20;99.90;;;;;;4981803;28;20286;-51
2022/04/09 07:47:55;;;;;;;5.00;3.53;;;8.20;99.90;;;;;;4982242;28;20221;-56
2022/04/09 07:50:25;;;;;;;6.07;3.35;;;8.60;99.90;;;;;;4982091;28;20202;-53
2022/04/09 07:52:54;;;;;;;2.97;2.72;;;9.20;99.90;;;;;;4981762;28;20218;-53
2022/04/09 07:55:21;;;;;;;4.32;2.90;;;9.50;99.90;;;;;;4981949;28;20565;-52
2022/04/09 07:57:52;;;;;;;12.50;3.03;;;10.00;99.90;;;;;;4982348;28;20238;-53
2022/04/09 08:00:21;;;;;;;1.90;1.70;;;10.10;99.90;;;;;;4982110;28;20503;-54
2022/04/09 08:02:48;;;;;;;7.50;3.13;;;9.70;99.90;;;;;;4980779;28;20255;-55
2022/04/09 08:05:18;;;;;;;2.10;1.90;;;9.40;99.90;;;;;;4981606;28;20514;-51
2022/04/09 08:07:54;;;;;;;2.28;2.03;;;9.20;99.90;;;;;;5077226;28;20571;-52
2022/04/09 08:10:21;;;;;;;4.85;2.25;;;8.90;99.90;;;;;;5077512;28;20192;-51
2022/04/09 08:12:53;;;;;;;3.17;2.00;;;8.50;99.90;;;;;;5076860;28;20512;-54
2022/04/09 08:15:23;;;;;;;4.10;2.47;;;8.60;99.90;;;;;;5077203;28;20241;-50
2022/04/09 08:17:54;;;;;;;2.53;1.95;;;9.30;99.90;;;;;;5076807;28;20220;-57
2022/04/09 08:20:42;;;;;;;2.38;1.70;;;10.60;99.90;;;;;;5062306;28;20211;-55
2022/04/09 08:23:17;;;;;;;3.78;2.10;;;13.00;99.90;;;;;;5068986;28;20436;-52
2022/04/09 08:25:44;;;;;;;3.42;2.30;;;13.60;99.90;;;;;;5076131;28;20203;-55
2022/04/09 08:28:13;;;;;;;2.03;1.83;;;12.50;99.90;;;;;;5076247;28;20227;-50
2022/04/09 08:30:41;;;;;;;6.72;2.13;;;11.50;99.90;;;;;;5076478;28;20195;-56
2022/04/09 08:33:10;;;;;;;3.50;2.75;;;10.90;99.90;;;;;;5076476;28;20206;-53
2022/04/09 08:35:43;;;;;;;4.82;2.65;;;10.50;99.90;;;;;;5076702;28;20239;-54
2022/04/09 08:38:11;;;;;;;2.53;2.33;;;10.90;99.90;;;;;;5076396;28;20570;-52
2022/04/09 08:40:40;;;;;;;2.13;2.00;;;11.60;99.90;;;;;;5076289;28;20205;-56
2022/04/09 08:43:08;;;;;;;5.32;3.00;;;12.20;99.90;;;;;;5076329;28;20225;-53
2022/04/09 08:45:36;;;;;;;1.90;1.80;;;12.50;99.90;;;;;;5074751;28;20293;-54
2022/04/09 08:48:07;;;;;;;4.90;2.20;;;12.10;99.90;;;;;;5076333;28;20218;-55
2022/04/09 08:50:37;;;;;;;4.00;2.10;;;12.80;99.90;;;;;;5076359;28;20202;-50
2022/04/09 08:53:10;;;;;;;2.33;1.60;;;11.90;99.90;;;;;;5076173;28;20195;-52
2022/04/09 08:55:40;;;;;;;2.20;2.00;;;10.50;99.90;;;;;;5076197;28;20413;-53
2022/04/09 08:58:08;;;;;;;5.93;2.30;;;9.60;99.90;;;;;;5075721;28;20463;-54
2022/04/09 09:00:37;;;;;;;2.90;2.60;;;9.30;99.90;;;;;;5078563;28;20231;-55
2022/04/09 09:03:05;;;;;;;2.40;2.20;;;9.40;99.90;;;;;;5094214;28;20197;-50
2022/04/09 09:05:40;;;;;;;1.90;1.80;;;10.40;99.90;;;;;;5097012;28;20405;-54
2022/04/09 09:08:10;;;;;;;2.10;1.90;;;12.20;99.90;;;;;;5099405;28;20597;-53
2022/04/09 09:10:37;;;;;;;1.80;1.70;;;13.00;99.90;;;;;;5099816;28;20206;-57
2022/04/09 09:13:07;;;;;;;2.17;2.08;;;11.80;99.90;;;;;;5101162;28;20576;-56
2022/04/09 09:15:48;;;;;;;3.47;1.92;;;10.90;99.90;;;;;;5099858;28;20461;-57
2022/04/09 09:18:20;;;;;;;1.75;1.60;;;10.40;99.90;;;;;;5092071;28;20238;-52
2022/04/09 09:20:55;;;;;;;1.70;1.60;;;10.50;99.90;;;;;;5083739;28;20261;-53
2022/04/09 09:23:33;;;;;;;3.25;1.88;;;10.30;99.90;;;;;;5082791;28;20204;-53
2022/04/09 09:26:04;;;;;;;3.05;2.25;;;10.10;99.90;;;;;;5082142;28;20201;-53
2022/04/09 09:28:33;;;;;;;2.38;2.10;;;9.90;99.90;;;;;;5082374;28;20439;-54
2022/04/09 09:31:02;;;;;;;2.50;2.13;;;9.80;99.90;;;;;;5082233;28;20210;-51
2022/04/09 09:33:30;;;;;;;2.33;2.13;;;9.80;99.90;;;;;;5065929;28;20229;-51
2022/04/09 09:36:33;;;;;;;5.45;2.25;;;9.90;99.90;;;;;;5062727;28;20224;-54
2022/04/09 09:39:05;;;;;;;5.47;2.30;;;9.90;99.90;;;;;;5062074;28;20222;-52
2022/04/09 09:41:34;;;;;;;2.20;2.00;;;9.70;99.90;;;;;;5062330;28;20234;-52
2022/04/09 09:44:07;;;;;;;2.28;1.90;;;9.80;99.90;;;;;;5062401;28;20209;-50
2022/04/09 09:46:35;;;;;;;1.35;1.25;;;9.80;99.90;;;;;;5062564;28;20524;-53
2022/04/09 09:49:03;;;;;;;1.25;1.15;;;10.00;99.90;;;;;;5062391;28;20410;-51
2022/04/09 09:51:30;;;;;;;4.20;2.08;;;10.20;99.90;;;;;;5062403;28;20244;-53
2022/04/09 09:54:10;;;;;;;1.52;1.42;;;10.60;99.90;;;;;;5061863;28;20201;-50
2022/04/09 09:56:42;;;;;;;4.32;3.10;;;10.30;99.90;;;;;;5062155;28;20538;-51
2022/04/09 09:59:14;;;;;;;1.65;1.55;;;10.50;99.90;;;;;;5061862;28;20266;-50
2022/04/09 10:01:47;;;;;;;3.22;2.45;;;10.50;99.90;;;;;;5061804;28;20205;-54
2022/04/09 10:04:15;;;;;;;3.17;2.83;;;10.60;99.90;;;;;;5061893;28;20202;-52
2022/04/09 10:06:43;;;;;;;3.75;1.90;;;10.90;99.90;;;;;;5061743;28;20226;-54
2022/04/09 10:09:15;;;;;;;3.60;2.78;;;10.90;99.90;;;;;;5061818;28;20218;-54
2022/04/09 10:11:47;;;;;;;3.17;1.92;;;10.70;99.90;;;;;;5061314;28;20204;-51
2022/04/09 10:14:21;;;;;;;4.75;1.67;;;11.10;99.90;;;;;;5054587;28;20211;-53
2022/04/09 10:16:51;;;;;;;9.80;2.60;;;11.10;99.90;;;;;;5059972;28;20556;-50
2022/04/09 10:19:22;;;;;;;2.42;1.65;;;10.90;99.90;;;;;;5059338;28;20257;-50
2022/04/09 10:21:52;;;;;;;1.48;1.38;;;10.60;99.90;;;;;;5057251;28;20221;-55
2022/04/09 10:24:24;;;;;;;4.50;2.00;;;10.90;99.90;;;;;;5051640;28;20214;-53
2022/04/09 10:26:56;;;;;;;1.85;1.67;;;11.10;99.90;;;;;;5054318;28;20222;-52
2022/04/09 10:29:25;;;;;;;2.67;1.60;;;11.00;99.90;;;;;;5047426;28;20199;-53
2022/04/09 10:31:53;;;;;;;1.80;1.60;;;11.00;99.90;;;;;;5055088;28;20202;-55
2022/04/09 10:34:20;;;;;;;3.40;2.55;;;11.10;99.90;;;;;;5060119;28;20389;-54
2022/04/09 10:36:52;;;;;;;2.47;1.52;;;11.50;99.90;;;;;;5053795;28;20520;-53
2022/04/09 10:39:45;;;;;;;2.70;1.65;;;11.80;99.90;;;;;;5056832;28;20207;-51
2022/04/09 10:42:50;;;;;;;2.72;1.50;;;11.90;99.90;;;;;;5053330;28;20509;-53
2022/04/09 10:45:18;;;;;;;0.85;0.70;;;11.80;99.90;;;;;;5055756;28;20345;-55
2022/04/09 10:48:06;;;;;;;1.13;1.00;;;11.70;99.90;;;;;;5060779;28;20226;-51
2022/04/09 10:50:54;;;;;;;3.38;1.17;;;11.10;99.90;;;;;;5061243;28;20409;-50
2022/04/09 10:53:28;;;;;;;1.02;1.02;;;10.70;99.90;;;;;;5064356;28;20281;-50
2022/04/09 10:56:13;;;;;;;1.10;1.05;;;10.70;99.90;;;;;;5062800;28;20199;-54
2022/04/09 10:59:08;;;;;;;1.67;1.30;;;11.10;99.90;;;;;;5060800;28;20525;-55
2022/04/09 11:01:50;;;;;;;1.23;1.13;;;11.80;99.90;;;;;;5068428;28;20523;-57
2022/04/09 11:04:28;;;;;;;2.42;1.05;;;11.90;99.90;;;;;;5066698;28;20194;-56
2022/04/09 11:07:10;;;;;;;1.50;1.10;;;11.30;99.90;;;;;;5063310;28;20223;-53
2022/04/09 11:09:50;;;;;;;1.30;1.30;;;10.90;99.90;;;;;;5056060;28;20205;-54
2022/04/09 11:12:39;;;;;;;1.58;1.45;;;10.60;99.90;;;;;;5072066;28;20434;-54
2022/04/09 11:15:17;;;;;;;3.45;1.40;;;10.50;99.90;;;;;;5080318;28;20204;-55
2022/04/09 11:17:46;;;;;;;1.30;1.10;;;10.60;99.90;;;;;;5067710;28;20417;-51
2022/04/09 11:20:20;;;;;;;2.35;1.67;;;10.70;99.90;;;;;;5065148;28;20328;-51
2022/04/09 11:22:51;;;;;;;1.80;1.13;;;11.00;99.90;;;;;;5058198;28;20426;-56
2022/04/09 11:25:32;;;;;;;2.35;1.20;;;11.70;99.90;;;;;;5060663;28;20202;-52
2022/04/09 11:28:17;;;;;;;3.50;1.15;;;12.50;99.90;;;;;;5069175;28;20506;-52
2022/04/09 11:31:02;;;;;;;2.13;1.17;;;12.80;99.90;;;;;;5054052;28;20205;-52
2022/04/09 11:33:32;;;;;;;1.10;1.00;;;12.80;99.90;;;;;;5070975;28;20197;-50
2022/04/09 11:36:02;;;;;;;0.80;0.80;;;12.70;99.90;;;;;;5065584;28;20404;-53
2022/04/09 11:38:30;;;;;;;1.60;1.00;;;12.60;99.40;;;;;;5073305;28;20226;-52
2022/04/09 11:40:57;;;;;;;1.00;0.90;;;12.30;99.80;;;;;;5077550;28;20199;-54
2022/04/09 11:43:24;;;;;;;1.30;1.08;;;12.30;99.90;;;;;;5046653;28;20207;-50
2022/04/09 11:46:03;;;;;;;1.10;0.93;;;12.30;99.90;;;;;;5039256;28;20235;-51
2022/04/09 11:48:30;;;;;;;1.30;1.10;;;12.20;99.90;;;;;;5049543;28;20222;-53
2022/04/09 11:50:59;;;;;;;0.90;0.80;;;12.50;99.90;;;;;;5071273;28;20206;-52
2022/04/09 11:53:26;;;;;;;1.05;0.63;;;12.60;99.90;;;;;;5080191;28;20398;-53
2022/04/09 11:56:05;;;;;;;1.25;1.13;;;12.10;99.70;;;;;;5080002;28;20202;-50
2022/04/09 11:58:34;;;;;;;1.58;1.30;;;11.60;99.90;;;;;;5065907;28;20354;-53
2022/04/09 12:01:08;;;;;;;0.75;0.75;;;11.20;99.90;;;;;;5059497;28;20264;-52
2022/04/09 12:03:37;;;;;;;1.55;1.33;;;11.20;99.90;;;;;;5059862;28;20418;-50
2022/04/09 12:06:06;;;;;;;1.55;1.45;;;11.00;99.90;;;;;;5059868;28;20229;-53
2022/04/09 12:08:42;;;;;;;2.85;1.45;;;11.30;99.90;;;;;;5063532;28;20245;-55
2022/04/09 12:11:40;;;;;;;2.10;1.42;;;11.40;99.90;;;;;;5063101;28;20206;-56
2022/04/09 12:14:15;;;;;;;9.70;1.10;;;11.50;99.90;;;;;;5065095;28;20226;-55
2022/04/09 12:16:43;;;;;;;0.75;0.75;;;11.50;99.90;;;;;;5063725;28;20205;-52
2022/04/09 12:19:12;;;;;;;1.48;1.38;;;11.10;99.90;;;;;;5059582;28;20264;-50
2022/04/09 12:21:41;;;;;;;2.38;1.50;;;10.10;99.90;;;;;;5059424;28;20453;-50
2022/04/09 12:24:11;;;;;;;2.50;1.17;;;9.30;99.90;;;;;;5060412;28;20358;-49
2022/04/09 12:26:45;;;;;;;4.10;1.30;;;8.50;99.90;;;;;;5060570;28;20197;-51
2022/04/09 12:29:24;;;;;;;4.10;1.50;;;7.90;99.90;;;;;;5060467;28;20225;-50
2022/04/09 12:31:52;;;;;;;1.33;1.23;;;7.70;99.90;;;;;;5057820;28;20253;-49
2022/04/09 12:34:21;;;;;;;2.25;2.05;;;7.40;99.90;;;;;;5051830;28;20374;-51
2022/04/09 12:37:05;;;;;;;1.63;1.40;;;7.30;99.90;;;;;;5059485;28;20502;-53
2022/04/09 12:39:34;;;;;;;1.50;1.40;;;7.30;99.90;;;;;;5059490;28;20196;-50
2022/04/09 12:42:06;;;;;;;4.43;1.80;;;7.50;99.90;;;;;;5059385;28;20204;-51
2022/04/09 12:44:35;;;;;;;2.70;1.92;;;8.20;99.90;;;;;;5059783;28;20195;-49
2022/04/09 12:47:04;;;;;;;1.63;1.25;;;8.70;99.90;;;;;;5059223;28;20436;-49
2022/04/09 12:49:40;;;;;;;5.32;1.80;;;8.80;99.90;;;;;;5058159;28;20258;-48
2022/04/09 12:52:09;;;;;;;7.28;3.78;;;8.80;99.90;;;;;;5067453;28;20200;-53
2022/04/09 12:54:37;;;;;;;2.05;1.85;;;8.80;99.90;;;;;;5081754;28;20202;-53
2022/04/09 12:57:08;;;;;;;0.90;0.90;;;8.80;99.90;;;;;;5082254;28;20440;-54
2022/04/09 12:59:37;;;;;;;1.52;1.40;;;8.80;99.90;;;;;;5082347;28;20268;-51
2022/04/09 13:02:06;;;;;;;1.30;1.20;;;8.80;99.90;;;;;;5082475;28;20201;-54
2022/04/09 13:04:34;;;;;;;1.00;1.00;;;8.80;99.90;;;;;;5067059;28;20256;-49
2022/04/09 13:07:01;;;;;;;0.98;0.80;;;8.80;99.90;;;;;;5080217;28;20228;-52
2022/04/09 13:09:28;;;;;;;2.78;1.52;;;8.90;99.90;;;;;;5082666;28;20250;-55